createdAt,value
2018-06-02T00:00:48.842Z,69.03
2018-06-02T00:03:15.671Z,69.07
2018-06-02T00:05:42.497Z,67.10
2018-06-02T00:08:08.611Z,67.30
2018-06-02T00:10:34.690Z,72.93
2018-06-02T00:13:00.801Z,65.27
2018-06-02T00:15:27.645Z,68.33
2018-06-02T00:17:54.474Z,63.77
2018-06-02T00:20:20.557Z,66.93
2018-06-02T00:22:46.650Z,66.83
2018-06-02T00:25:12.737Z,70.20
2018-06-02T00:27:38.953Z,61.70
2018-06-02T00:30:05.045Z,65.00
2018-06-02T00:32:31.129Z,62.43
2018-06-02T00:34:57.256Z,62.33
2018-06-02T00:37:24.095Z,60.80
2018-06-02T00:39:50.237Z,58.27
2018-06-02T00:42:17.089Z,62.23
2018-06-02T00:44:43.178Z,59.23
2018-06-02T00:47:09.270Z,58.97
2018-06-02T00:49:35.350Z,59.27
2018-06-02T00:52:01.454Z,58.97
2018-06-02T00:54:39.762Z,59.37
2018-06-02T00:57:05.858Z,58.93
2018-06-02T00:59:31.934Z,59.00
2018-06-02T01:01:58.034Z,57.60
2018-06-02T01:04:25.881Z,57.90
2018-06-02T01:06:52.075Z,54.50
2018-06-02T01:09:18.898Z,51.80
2018-06-02T01:11:47.718Z,51.57
2018-06-02T01:14:13.858Z,50.77
2018-06-02T01:16:39.941Z,54.33
2018-06-02T01:19:06.770Z,55.33
2018-06-02T01:21:32.867Z,54.17
2018-06-02T01:23:58.987Z,52.60
2018-06-02T01:26:25.161Z,55.30
2018-06-02T01:28:51.237Z,54.90
2018-06-02T01:31:17.343Z,57.27
2018-06-02T01:33:43.428Z,54.87
2018-06-02T01:36:10.018Z,53.17
2018-06-02T01:38:36.106Z,57.83
2018-06-02T01:41:02.953Z,55.13
2018-06-02T01:43:29.891Z,58.70
2018-06-02T01:45:56.730Z,59.73
2018-06-02T01:48:23.020Z,59.17
2018-06-02T01:50:49.130Z,61.83
2018-06-02T01:53:15.246Z,63.97
2018-06-02T01:55:41.339Z,63.87
2018-06-02T01:58:07.426Z,64.27
2018-06-02T02:00:33.653Z,65.90
2018-06-02T02:02:59.730Z,65.07
2018-06-02T02:05:26.868Z,64.10
2018-06-02T02:07:53.074Z,64.93
2018-06-02T02:10:19.206Z,61.93
2018-06-02T02:12:45.289Z,62.83
2018-06-02T02:15:11.382Z,59.97
2018-06-02T02:17:45.478Z,57.00
2018-06-02T02:20:16.567Z,57.47
2018-06-02T02:22:48.414Z,57.37
2018-06-02T02:25:19.266Z,57.13
2018-06-02T02:33:52.642Z,54.83
2018-06-02T02:36:33.257Z,57.23
2018-06-02T02:39:23.860Z,56.13
2018-06-02T02:41:59.508Z,59.27
2018-06-02T02:45:01.784Z,58.27
2018-06-02T02:47:27.998Z,60.20
2018-06-02T02:49:54.137Z,62.87
2018-06-02T02:52:21.023Z,69.63
2018-06-02T02:54:47.159Z,63.50
2018-06-02T02:57:13.278Z,67.20
2018-06-02T02:59:39.368Z,65.30
2018-06-02T03:02:05.614Z,64.53
2018-06-02T03:04:31.710Z,59.07
2018-06-02T03:06:58.681Z,60.03
2018-06-02T03:09:24.935Z,54.90
2018-06-02T03:11:51.030Z,55.20
2018-06-02T03:14:17.137Z,54.93
2018-06-02T03:16:43.222Z,51.53
2018-06-02T03:19:09.331Z,49.20
2018-06-02T03:21:35.480Z,46.20
2018-06-02T03:24:01.574Z,45.43
2018-06-02T03:26:27.658Z,46.87
2018-06-02T03:28:54.509Z,44.03
2018-06-02T03:31:21.341Z,45.30
2018-06-02T03:33:48.241Z,44.27
2018-06-02T03:36:14.331Z,43.47
2018-06-02T03:38:40.417Z,42.63
2018-06-02T03:41:06.535Z,44.53
2018-06-02T03:43:32.617Z,43.03
2018-06-02T03:45:58.706Z,43.10
2018-06-02T03:48:24.839Z,43.03
2018-06-02T03:50:51.691Z,48.40
2018-06-02T03:53:18.514Z,47.13
2018-06-02T03:55:44.649Z,43.37
2018-06-02T03:58:11.577Z,50.10
2018-06-02T04:00:37.661Z,46.73
2018-06-02T04:03:03.768Z,54.43
2018-06-02T04:05:30.426Z,51.07
2018-06-02T04:07:56.510Z,49.43
2018-06-02T04:10:23.359Z,49.30
2018-06-02T04:12:49.497Z,47.23
2018-06-02T04:15:16.318Z,46.37
2018-06-02T04:17:42.627Z,47.33
2018-06-02T04:20:09.081Z,45.53
2018-06-02T04:22:35.183Z,50.73
2018-06-02T04:25:01.281Z,47.30
2018-06-02T04:27:27.409Z,51.40
2018-06-02T04:29:53.511Z,48.20
2018-06-02T04:32:19.603Z,50.93
2018-06-02T04:34:45.701Z,49.90
2018-06-02T04:37:11.794Z,53.53
2018-06-02T04:39:37.891Z,56.20
2018-06-02T04:42:04.787Z,50.67
2018-06-02T04:44:30.879Z,49.50
2018-06-02T04:46:57.701Z,50.50
2018-06-02T04:49:23.827Z,54.77
2018-06-02T04:51:49.922Z,56.73
2018-06-02T04:54:16.327Z,55.83
2018-06-02T04:56:42.426Z,63.43
2018-06-02T04:59:08.522Z,58.43
2018-06-02T05:01:34.639Z,57.30
2018-06-02T05:04:00.724Z,53.30
2018-06-02T05:06:26.822Z,56.23
2018-06-02T05:08:53.691Z,52.60
2018-06-02T05:11:19.787Z,49.00
2018-06-02T05:13:46.641Z,51.60
2018-06-02T05:16:13.518Z,47.17
2018-06-02T05:18:39.602Z,47.83
2018-06-02T05:21:06.466Z,42.97
2018-06-02T05:23:32.565Z,42.40
2018-06-02T05:25:58.664Z,48.57
2018-06-02T05:28:24.888Z,47.23
2018-06-02T05:30:51.730Z,49.20
2018-06-02T05:33:18.557Z,45.10
2018-06-02T05:35:44.675Z,48.77
2018-06-02T05:38:10.761Z,48.07
2018-06-02T05:40:36.913Z,46.27
2018-06-02T05:43:02.977Z,42.27
2018-06-02T05:45:29.071Z,46.37
2018-06-02T05:47:55.185Z,48.57
2018-06-02T05:50:22.013Z,52.33
2018-06-02T05:52:48.868Z,42.33
2018-06-02T05:55:15.845Z,37.63
2018-06-02T05:57:42.081Z,39.53
2018-06-02T06:00:08.165Z,39.40
2018-06-02T06:02:34.274Z,41.17
2018-06-02T06:05:00.366Z,40.20
2018-06-02T06:07:26.461Z,38.27
2018-06-02T06:09:52.584Z,42.27
2018-06-02T06:12:18.697Z,41.13
2018-06-02T06:14:45.873Z,39.37
2018-06-02T06:17:11.983Z,39.40
2018-06-02T06:19:38.149Z,36.23
2018-06-02T06:22:04.196Z,37.37
2018-06-02T06:24:30.291Z,36.27
2018-06-02T06:26:56.419Z,33.90
2018-06-02T06:29:22.513Z,34.73
2018-06-02T06:31:48.614Z,34.47
2018-06-02T06:34:15.442Z,39.87
2018-06-02T06:36:41.562Z,35.33
2018-06-02T06:39:07.702Z,34.57
2018-06-02T06:41:33.745Z,39.13
2018-06-02T06:44:00.570Z,36.67
2018-06-02T06:46:26.674Z,40.83
2018-06-02T06:48:52.893Z,34.27
2018-06-02T06:51:18.992Z,39.00
2018-06-02T06:53:45.071Z,37.87
2018-06-02T06:56:11.189Z,37.07
2018-06-02T06:58:37.333Z,37.33
2018-06-02T07:01:03.444Z,36.50
2018-06-02T07:03:29.525Z,34.70
2018-06-02T07:05:55.614Z,38.40
2018-06-02T07:08:22.473Z,38.60
2018-06-02T07:10:49.317Z,39.07
2018-06-02T07:13:16.150Z,39.17
2018-06-02T07:15:43.190Z,37.57
2018-06-02T07:18:09.289Z,40.20
2018-06-02T07:20:35.399Z,38.47
2018-06-02T07:23:01.500Z,37.50
2018-06-02T07:25:27.593Z,38.57
2018-06-02T07:27:54.441Z,38.07
2018-06-02T07:30:21.270Z,46.30
2018-06-02T07:32:49.562Z,38.80
2018-06-02T07:35:16.552Z,40.80
2018-06-02T07:37:43.964Z,41.10
2018-06-02T07:40:10.884Z,36.83
2018-06-02T07:42:37.075Z,36.07
2018-06-02T07:45:03.256Z,34.70
2018-06-02T07:47:29.525Z,36.10
2018-06-02T07:49:55.835Z,35.73
2018-06-02T07:52:21.931Z,37.13
2018-06-02T07:54:48.117Z,35.30
2018-06-02T07:57:14.360Z,34.93
2018-06-02T07:59:40.558Z,38.83
2018-06-02T08:02:06.702Z,35.03
2018-06-02T08:04:32.818Z,39.33
2018-06-02T08:06:58.943Z,35.70
2018-06-02T08:09:25.095Z,36.67
2018-06-02T08:11:51.243Z,38.27
2018-06-02T08:14:17.406Z,43.23
2018-06-02T08:16:44.309Z,41.23
2018-06-02T08:19:10.451Z,42.10
2018-06-02T08:21:37.349Z,41.40
2018-06-02T08:24:03.491Z,42.20
2018-06-02T08:26:29.627Z,40.40
2018-06-02T08:28:55.782Z,40.33
2018-06-02T08:31:22.657Z,40.97
2018-06-02T08:33:48.796Z,39.67
2018-06-02T08:36:14.916Z,41.33
2018-06-02T08:38:41.057Z,37.97
2018-06-02T08:41:07.192Z,40.33
2018-06-02T08:43:33.490Z,36.67
2018-06-02T08:45:59.663Z,39.67
2018-06-02T08:48:25.782Z,38.77
2018-06-02T08:50:51.954Z,39.60
2018-06-02T08:53:18.842Z,38.17
2018-06-02T08:55:44.978Z,38.40
2018-06-02T08:58:11.867Z,41.40
2018-06-02T09:00:39.289Z,35.13
2018-06-02T09:03:05.937Z,39.03
2018-06-02T09:05:32.110Z,45.87
2018-06-02T09:07:58.218Z,48.00
2018-06-02T09:10:25.102Z,46.77
2018-06-02T09:12:51.243Z,53.70
2018-06-02T09:15:17.339Z,55.27
2018-06-02T09:17:43.474Z,61.47
2018-06-02T09:20:09.731Z,56.63
2018-06-02T09:22:35.814Z,63.27
2018-06-02T09:25:01.938Z,63.67
2018-06-02T09:27:28.047Z,60.27
2018-06-02T09:29:54.621Z,62.60
2018-06-02T09:32:20.739Z,61.23
2018-06-02T09:34:46.838Z,59.40
2018-06-02T09:37:13.696Z,48.93
2018-06-02T09:39:39.802Z,48.93
2018-06-02T09:42:06.998Z,48.83
2018-06-02T09:44:33.108Z,47.30
2018-06-02T09:46:59.206Z,45.93
2018-06-02T09:49:26.065Z,52.37
2018-06-02T09:51:52.973Z,53.27
2018-06-02T09:54:19.062Z,51.30
2018-06-02T09:56:45.146Z,47.80
2018-06-02T09:59:12.011Z,52.47
2018-06-02T10:01:38.094Z,49.87
2018-06-02T10:04:04.247Z,55.13
2018-06-02T10:06:31.085Z,46.90
2018-06-02T10:08:57.922Z,49.53
2018-06-02T10:11:24.137Z,43.23
2018-06-02T10:13:50.272Z,44.60
2018-06-02T10:16:16.403Z,49.37
2018-06-02T10:18:42.506Z,57.17
2018-06-02T10:21:08.605Z,49.40
2018-06-02T10:23:34.767Z,48.73
2018-06-02T10:26:00.884Z,53.90
2018-06-02T10:28:27.018Z,59.37
2018-06-02T10:30:53.141Z,58.27
2018-06-02T10:33:19.251Z,51.57
2018-06-02T10:35:45.411Z,51.80
2018-06-02T10:38:11.481Z,48.77
2018-06-02T10:40:37.582Z,54.97
2018-06-02T10:43:04.449Z,54.10
2018-06-02T10:45:30.590Z,43.67
2018-06-02T10:47:56.714Z,41.93
2018-06-02T10:50:22.915Z,41.33
2018-06-02T10:52:49.031Z,37.90
2018-06-02T10:55:16.776Z,41.17
2018-06-02T10:57:42.964Z,38.80
2018-06-02T11:00:09.152Z,39.93
2018-06-02T11:02:36.038Z,39.13
2018-06-02T11:05:02.294Z,38.83
2018-06-02T11:07:28.437Z,40.50
2018-06-02T11:09:54.510Z,43.67
2018-06-02T11:12:20.630Z,38.77
2018-06-02T11:14:46.883Z,39.07
2018-06-02T11:17:13.037Z,39.60
2018-06-02T11:19:39.125Z,37.63
2018-06-02T11:22:05.331Z,36.80
2018-06-02T11:24:31.535Z,38.20
2018-06-02T11:26:58.526Z,34.13
2018-06-02T11:29:24.638Z,30.13
2018-06-02T11:31:50.842Z,32.20
2018-06-02T11:34:17.679Z,30.50
2018-06-02T11:36:44.822Z,28.13
2018-06-02T11:39:10.973Z,27.23
2018-06-02T11:41:37.125Z,25.67
2018-06-02T11:44:03.260Z,24.83
2018-06-02T11:46:29.416Z,26.07
2018-06-02T11:48:58.580Z,23.40
2018-06-02T11:51:24.691Z,25.53
2018-06-02T11:53:50.790Z,20.87
2018-06-02T11:56:17.640Z,23.87
2018-06-02T11:58:43.735Z,21.43
2018-06-02T12:01:09.825Z,24.10
2018-06-02T12:03:35.917Z,24.60
2018-06-02T12:06:02.807Z,21.80
2018-06-02T12:08:29.237Z,21.37
2018-06-02T12:10:55.315Z,24.07
2018-06-02T12:13:22.220Z,19.83
2018-06-02T12:15:48.310Z,19.37
2018-06-02T12:18:14.406Z,19.13
2018-06-02T12:20:41.273Z,19.00
2018-06-02T12:23:08.341Z,17.97
2018-06-02T12:25:34.429Z,18.50
2018-06-02T12:28:00.586Z,16.47
2018-06-02T12:30:26.697Z,17.60
2018-06-02T12:32:52.827Z,17.63
2018-06-02T12:35:19.066Z,16.50
2018-06-02T12:37:45.244Z,16.43
2018-06-02T12:40:12.124Z,17.27
2018-06-02T12:42:38.202Z,15.03
2018-06-02T12:45:04.295Z,15.70
2018-06-02T12:47:30.378Z,16.93
2018-06-02T12:49:56.463Z,14.63
2018-06-02T12:52:22.589Z,16.77
2018-06-02T12:54:48.682Z,17.80
2018-06-02T12:57:14.781Z,15.80
2018-06-02T12:59:41.766Z,15.77
2018-06-02T13:02:07.869Z,20.40
2018-06-02T13:04:34.001Z,26.67
2018-06-02T13:07:01.023Z,23.47
2018-06-02T13:09:27.886Z,25.33
2018-06-02T13:11:55.164Z,16.37
2018-06-02T13:14:21.245Z,26.00
2018-06-02T13:16:47.337Z,18.63
2018-06-02T13:19:13.451Z,16.30
2018-06-02T13:21:39.529Z,15.57
2018-06-02T13:24:07.728Z,15.53
2018-06-02T13:26:35.529Z,14.23
2018-06-02T13:29:02.454Z,13.50
2018-06-02T13:31:28.549Z,14.23
2018-06-02T13:33:55.479Z,14.97
2018-06-02T13:36:21.592Z,14.60
2018-06-02T13:38:47.705Z,15.73
2018-06-02T13:41:13.797Z,14.30
2018-06-02T13:43:39.886Z,14.03
2018-06-02T13:46:06.718Z,13.70
2018-06-02T13:48:32.817Z,13.37
2018-06-02T13:50:58.906Z,12.47
2018-06-02T13:53:25.018Z,12.00
2018-06-02T13:55:51.961Z,12.17
2018-06-02T13:58:18.789Z,11.50
2018-06-02T14:00:44.878Z,11.83
2018-06-02T14:03:10.974Z,10.30
2018-06-02T14:05:37.062Z,10.50
2018-06-02T14:08:03.374Z,11.27
2018-06-02T14:10:29.550Z,11.30
2018-06-02T14:12:55.666Z,11.53
2018-06-02T14:15:22.490Z,11.27
2018-06-02T14:17:48.604Z,10.63
2018-06-02T14:20:14.702Z,10.60
2018-06-02T14:22:40.797Z,11.03
2018-06-02T14:25:06.917Z,12.53
2018-06-02T14:27:33.760Z,12.43
2018-06-02T14:30:00.597Z,12.90
2018-06-02T14:32:27.472Z,11.50
2018-06-02T14:34:53.553Z,12.60
2018-06-02T14:37:20.378Z,11.73
2018-06-02T14:39:46.486Z,11.17
2018-06-02T14:42:12.573Z,12.53
2018-06-02T14:44:38.661Z,10.83
2018-06-02T14:47:04.806Z,11.53
2018-06-02T14:49:31.682Z,12.47
2018-06-02T14:51:57.770Z,12.10
2018-06-02T14:54:23.857Z,12.70
2018-06-02T14:56:50.011Z,10.27
2018-06-02T14:59:16.097Z,12.10
2018-06-02T15:01:42.218Z,12.90
2018-06-02T15:04:08.332Z,13.37
2018-06-02T15:06:34.438Z,13.33
2018-06-02T15:09:01.283Z,13.37
2018-06-02T15:11:28.105Z,15.33
2018-06-02T15:13:54.198Z,17.87
2018-06-02T15:16:20.305Z,14.77
2018-06-02T15:18:46.599Z,15.47
2018-06-02T15:21:12.695Z,16.10
2018-06-02T15:23:38.785Z,16.47
2018-06-02T15:26:04.894Z,15.90
2018-06-02T15:28:31.004Z,16.73
2018-06-02T15:30:57.839Z,17.43
2018-06-02T15:33:24.125Z,17.83
2018-06-02T15:35:50.249Z,15.53
2018-06-02T15:38:16.351Z,17.07
2018-06-02T15:40:42.449Z,17.13
2018-06-02T15:43:08.529Z,17.07
2018-06-02T15:45:34.651Z,16.70
2018-06-02T15:48:00.749Z,19.13
2018-06-02T15:50:27.203Z,16.67
2018-06-02T15:52:53.302Z,18.17
2018-06-02T15:55:20.122Z,17.70
2018-06-02T15:57:47.093Z,16.93
2018-06-02T16:00:13.175Z,17.40
2018-06-02T16:02:39.386Z,17.50
2018-06-02T16:05:05.381Z,16.97
2018-06-02T16:07:31.482Z,17.97
2018-06-02T16:09:58.463Z,19.43
2018-06-02T16:12:24.546Z,17.57
2018-06-02T16:14:50.634Z,18.03
2018-06-02T16:17:16.724Z,18.53
2018-06-02T16:19:43.174Z,17.57
2018-06-02T16:22:09.258Z,17.80
2018-06-02T16:24:35.349Z,17.77
2018-06-02T16:27:01.439Z,17.57
2018-06-02T16:29:27.530Z,18.60
2018-06-02T16:31:53.617Z,20.40
2018-06-02T16:34:19.698Z,18.67
2018-06-02T16:36:46.533Z,21.87
2018-06-02T16:39:13.351Z,19.70
2018-06-02T16:41:39.465Z,21.97
2018-06-02T16:44:05.552Z,20.20
2018-06-02T16:46:31.755Z,22.00
2018-06-02T16:48:57.834Z,21.37
2018-06-02T16:51:23.917Z,19.57
2018-06-02T16:53:50.749Z,19.13
2018-06-02T16:56:17.569Z,22.50
2018-06-02T16:58:43.669Z,21.70
2018-06-02T17:01:09.742Z,22.20
2018-06-02T17:03:36.698Z,21.50
2018-06-02T17:06:02.838Z,22.03
2018-06-02T17:08:29.014Z,24.10
2018-06-02T17:10:55.113Z,22.30
2018-06-02T17:13:21.202Z,21.87
2018-06-02T17:15:48.046Z,22.17
2018-06-02T17:18:14.878Z,23.67
2018-06-02T17:20:41.717Z,22.00
2018-06-02T17:23:07.814Z,30.73
2018-06-02T17:25:33.894Z,21.80
2018-06-02T17:28:00.462Z,21.27
2018-06-02T17:30:26.559Z,27.07
2018-06-02T17:32:52.661Z,24.47
2018-06-02T17:35:19.485Z,27.23
2018-06-02T17:37:45.603Z,22.90
2018-06-02T17:40:11.704Z,24.93
2018-06-02T17:42:38.145Z,27.50
2018-06-02T17:45:04.242Z,27.60
2018-06-02T17:47:30.444Z,26.50
2018-06-02T17:49:57.277Z,30.03
2018-06-02T17:52:23.359Z,23.97
2018-06-02T17:54:49.465Z,24.90
2018-06-02T17:57:15.641Z,27.00
2018-06-02T17:59:41.742Z,26.50
2018-06-02T18:02:08.020Z,30.30
2018-06-02T18:04:34.874Z,26.07
2018-06-02T18:07:01.729Z,25.20
2018-06-02T18:09:27.837Z,26.87
2018-06-02T18:11:54.018Z,27.70
2018-06-02T18:14:20.221Z,28.67
2018-06-02T18:16:46.313Z,31.23
2018-06-02T18:19:13.142Z,28.50
2018-06-02T18:21:39.229Z,28.23
2018-06-02T18:24:05.342Z,28.93
2018-06-02T18:26:31.437Z,28.03
2018-06-02T18:28:58.254Z,29.80
2018-06-02T18:31:24.337Z,28.63
2018-06-02T18:33:50.425Z,33.40
2018-06-02T18:36:17.268Z,30.90
2018-06-02T18:38:43.341Z,29.90
2018-06-02T18:41:09.442Z,31.10
2018-06-02T18:43:35.554Z,25.10
2018-06-02T18:46:02.469Z,27.40
2018-06-02T18:48:28.590Z,29.33
2018-06-02T18:50:54.687Z,27.67
2018-06-02T18:53:20.769Z,26.83
2018-06-02T18:55:47.602Z,28.27
2018-06-02T18:58:13.762Z,26.87
2018-06-02T19:00:39.842Z,27.10
2018-06-02T19:03:05.957Z,36.80
2018-06-02T19:05:32.090Z,29.77
2018-06-02T19:07:58.218Z,35.23
2018-06-02T19:10:24.309Z,28.80
2018-06-02T19:12:50.433Z,25.83
2018-06-02T19:15:16.619Z,31.47
2018-06-02T19:17:43.414Z,28.70
2018-06-02T19:20:09.502Z,29.30
2018-06-02T19:22:36.355Z,26.67
2018-06-02T19:25:02.486Z,29.50
2018-06-02T19:27:28.610Z,28.50
2018-06-02T19:29:54.713Z,31.60
2018-06-02T19:32:21.541Z,35.30
2018-06-02T19:34:47.645Z,32.63
2018-06-02T19:37:13.743Z,35.27
2018-06-02T19:39:39.869Z,36.93
2018-06-02T19:42:06.011Z,36.47
2018-06-02T19:44:32.182Z,31.70
2018-06-02T19:46:58.398Z,32.67
2018-06-02T19:49:24.710Z,38.80
2018-06-02T19:51:50.817Z,35.50
2018-06-02T19:54:16.922Z,34.83
2018-06-02T19:56:43.034Z,35.80
2018-06-02T19:59:09.869Z,36.43
2018-06-02T20:01:36.721Z,36.50
2018-06-02T20:04:02.828Z,37.30
2018-06-02T20:06:28.940Z,38.57
2018-06-02T20:08:55.030Z,37.43
2018-06-02T20:11:21.170Z,41.80
2018-06-02T20:13:47.273Z,40.57
2018-06-02T20:16:13.410Z,38.87
2018-06-02T20:18:39.537Z,41.50
2018-06-02T20:21:05.628Z,38.03
2018-06-02T20:23:32.513Z,38.30
2018-06-02T20:25:58.581Z,40.43
2018-06-02T20:28:24.785Z,38.60
2018-06-02T20:30:50.884Z,35.57
2018-06-02T20:33:17.033Z,39.23
2018-06-02T20:35:43.124Z,32.50
2018-06-02T20:38:09.225Z,44.03
2018-06-02T20:40:36.070Z,43.47
2018-06-02T20:43:03.681Z,43.40
2018-06-02T20:45:30.969Z,37.23
2018-06-02T20:47:57.161Z,38.47
2018-06-02T20:50:23.249Z,44.23
2018-06-02T20:52:50.171Z,42.00
2018-06-02T20:55:16.261Z,39.27
2018-06-02T20:57:42.337Z,36.50
2018-06-02T21:00:09.398Z,39.70
2018-06-02T21:02:36.226Z,37.37
2018-06-02T21:05:02.347Z,39.10
2018-06-02T21:07:28.515Z,41.20
2018-06-02T21:09:54.615Z,43.90
2018-06-02T21:12:21.452Z,41.33
2018-06-02T21:14:48.298Z,36.87
2018-06-02T21:17:15.137Z,39.20
2018-06-02T21:19:42.090Z,45.90
2018-06-02T21:22:08.930Z,44.23
2018-06-02T21:24:35.762Z,41.33
2018-06-02T21:27:02.251Z,40.70
2018-06-02T21:29:28.386Z,46.00
2018-06-02T21:31:54.476Z,40.73
2018-06-02T21:34:21.304Z,38.20
2018-06-02T21:36:48.157Z,40.27
2018-06-02T21:39:15.009Z,46.80
2018-06-02T21:41:41.177Z,46.37
2018-06-02T21:44:07.279Z,44.00
2018-06-02T21:46:33.402Z,42.70
2018-06-02T21:48:59.573Z,45.50
2018-06-02T21:51:25.678Z,46.23
2018-06-02T21:53:51.861Z,46.87
2018-06-02T21:56:18.826Z,44.20
2018-06-02T21:58:44.921Z,44.40
2018-06-02T22:01:12.517Z,47.87
2018-06-02T22:03:38.754Z,43.70
2018-06-02T22:06:05.110Z,41.60
2018-06-02T22:08:31.209Z,42.23
2018-06-02T22:10:57.318Z,50.23
2018-06-02T22:13:23.746Z,53.63
2018-06-02T22:15:49.882Z,43.17
2018-06-02T22:18:16.006Z,48.57
2018-06-02T22:20:42.109Z,43.20
2018-06-02T22:23:08.997Z,51.03
2018-06-02T22:25:35.129Z,46.97
2018-06-02T22:28:01.242Z,45.17
2018-06-02T22:30:27.354Z,45.10
2018-06-02T22:32:53.525Z,44.37
2018-06-02T22:35:19.637Z,48.03
2018-06-02T22:37:45.713Z,46.70
2018-06-02T22:40:11.894Z,49.23
2018-06-02T22:42:37.987Z,49.60
2018-06-02T22:45:04.072Z,55.27
2018-06-02T22:47:30.191Z,53.30
2018-06-02T22:49:56.269Z,52.13
2018-06-02T22:52:22.488Z,53.73
2018-06-02T22:54:48.577Z,44.83
2018-06-02T22:57:14.782Z,52.43
2018-06-02T22:59:40.889Z,57.53
2018-06-02T23:02:06.994Z,58.10
2018-06-02T23:04:33.113Z,58.63
2018-06-02T23:07:00.490Z,57.57
2018-06-02T23:09:26.582Z,48.57
2018-06-02T23:11:53.413Z,49.67
2018-06-02T23:14:19.505Z,59.30
2018-06-02T23:16:45.591Z,52.20
2018-06-02T23:19:12.417Z,64.23
2018-06-02T23:21:39.309Z,57.47
2018-06-02T23:24:05.430Z,61.57
2018-06-02T23:26:31.517Z,57.87
2018-06-02T23:28:58.365Z,59.97
2018-06-02T23:31:25.190Z,66.73
2018-06-02T23:33:51.285Z,60.57
2018-06-02T23:36:17.393Z,61.77
2018-06-02T23:38:43.477Z,61.00
2018-06-02T23:41:10.395Z,62.80
2018-06-02T23:43:36.476Z,60.20
2018-06-02T23:46:02.573Z,65.23
2018-06-02T23:48:29.420Z,70.77
2018-06-02T23:50:56.305Z,66.63
2018-06-02T23:53:22.426Z,70.13
2018-06-02T23:55:48.511Z,59.67
2018-06-02T23:58:15.349Z,71.87
